Terminal Aerodrome Forecast
Issued by NWS

Home | Current Version | Previous Version | Text Only | Print | Product List | Glossary On
Versions: 1 2 3 4 5 6 7 8 9 10 11 12 13 14
833
FTUS42 KMLB 221136
TAFLEE
TAF
KLEE 221136Z 2212/2312 34005KT P6SM FEW010 SCT250
     FM221400 36007KT P6SM FEW030 SCT250
     FM221800 01007KT P6SM SCT040 BKN250
     FM230000 05011KT P6SM SCT060
     FM230300 04004KT P6SM SCT250=

USA.gov is the U.S. government's official web portal to all federal, state and local government web resources and services.